Virtual Futura



 METAR AND TAF INFORMATION
METAR FOR LGKR
ADDS - METARS form results

(1206 UTC 19 July 2019)
Data provider http://aviationweather.gov/metar/data/
 
METAR text: LGKR 191150Z 23009KT 9999 FEW025 30/19 Q1014 NOSIG
Conditions at: LGKR (IOANNIS KAPODIST, GR) observed 1150 UTC 19 July 2019
Temperature: 30.0°C (86°F)
Dewpoint: 19.0°C (66°F) [RH = 52%]
Pressure (altimeter): 29.94 inches Hg (1014.0 mb)
Winds: from the SW (230 degrees) at 10 MPH (9 knots; 4.6 m/s)
Visibility: 6 or more miles (10+ km)
Ceiling: at least 12,000 feet AGL
Clouds: few clouds at 2500 feet AGL
Weather: no significant weather observed at this time

METAR text: LGKR 191120Z 20004KT 9999 FEW020 29/18 Q1014 NOSIG
Conditions at: LGKR (IOANNIS KAPODIST, GR) observed 1120 UTC 19 July 2019
Temperature: 29.0°C (84°F)
Dewpoint: 18.0°C (64°F) [RH = 52%]
Pressure (altimeter): 29.94 inches Hg (1014.0 mb)
Winds: from the SSW (200 degrees) at 5 MPH (4 knots; 2.1 m/s)
Visibility: 6 or more miles (10+ km)
Ceiling: at least 12,000 feet AGL
Clouds: few clouds at 2000 feet AGL
Weather: no significant weather observed at this time

Forecast for: LGKR (IOANNIS KAPODIST, GR)
Text: TAF LGKR 191100Z 1912/2012 32010KT 9999 FEW025
Forecast period: 1200 UTC 19 July 2019 to 1200 UTC 20 July 2019
Forecast type: FROM: standard forecast or significant change
Winds: from the NW (320 degrees) at 12 MPH (10 knots; 5.1 m/s)
Visibility: 6 or more miles 10+ km)
Ceiling: at least 12,000 feet AGL
Clouds: few clouds at 2500 feet AGL
Weather: no significant weather forecast for this period

 AIRPORT MAP

 RUNWAY INFORMATION
Runway 17 Runway length 7792 ft Runway width 148 ft
Runway elevation 5 ft Runway displaced threshold 1348 ft Runway heading 169
Runway 35 Runway length 7792 ft Runway width 148 ft
Runway elevation 5 ft Runway displaced threshold 213 ft Runway heading 349

 AIRPORT FREQUENCIES
Type A/G Name KERKIRA RD Frequency 563.7 MHZ
Type APP Name KERKIRA AP Frequency 118.075 MHZ
Type ATIS Name ATIS Frequency 126.35 MHZ
Type TWR Name KERKIRA TW Frequency 120.85 MHZ

 AIRPORT NEAR NAVIGATION AIDS
Type VOR-DME Name Garitsa Frequency 108800 KHZ
Type NDB Name Kerkira Frequency 403 KHZ
Type VOR-DME Name Kerkira Frequency 114700 KHZ

Poltica de Cookies

Esta web utiliza cookies para obtener datos estadsticos de la navegacin de sus usuarios. Si continas navegando consideramos que aceptas su uso. Ms informacin X Cerrar